Time;durP1;ratioP1;P1;durP2;ratioP2;P2;SDS_P1;SDS_P2;PMS_P1;PMS_P2;Temp;Humidity;BMP_temperature;BMP_pressure;BME280_temperature;BME280_humidity;BME280_pressure;Samples;Min_cycle;Max_cycle;Signal;HPM_P1;HPM_P2
2022/10/17 00:00:35;;;;;;;15.47;8.80;;;15.20;99.90;;;;;;5058261;28;20233;-58
2022/10/17 00:03:03;;;;;;;10.43;8.50;;;15.10;99.90;;;;;;5058084;28;20201;-58
2022/10/17 00:05:30;;;;;;;15.27;8.97;;;15.20;99.90;;;;;;5058085;28;20691;-56
2022/10/17 00:07:57;;;;;;;15.13;8.73;;;15.20;99.90;;;;;;5058016;28;20259;-56
2022/10/17 00:10:23;;;;;;;13.13;8.50;;;15.10;99.90;;;;;;5058335;28;20222;-58
2022/10/17 00:12:51;;;;;;;15.00;8.60;;;15.10;99.90;;;;;;5058118;28;20211;-55
2022/10/17 00:15:19;;;;;;;16.97;9.00;;;15.10;99.90;;;;;;5058381;28;20292;-53
2022/10/17 00:17:46;;;;;;;13.50;8.67;;;15.10;99.90;;;;;;5057827;28;20205;-55
2022/10/17 00:20:14;;;;;;;11.90;8.73;;;15.10;99.90;;;;;;5058088;28;20225;-54
2022/10/17 00:22:42;;;;;;;13.67;8.90;;;15.10;99.90;;;;;;5058040;28;20240;-55
2022/10/17 00:25:09;;;;;;;11.70;8.60;;;15.10;99.90;;;;;;5058101;28;20263;-53
2022/10/17 00:27:36;;;;;;;15.23;9.30;;;15.20;99.90;;;;;;5057859;28;20214;-56
2022/10/17 00:30:05;;;;;;;12.47;8.60;;;15.20;99.90;;;;;;5057818;28;20624;-54
2022/10/17 00:32:32;;;;;;;16.10;8.17;;;15.20;99.90;;;;;;5058118;28;20205;-54
2022/10/17 00:34:59;;;;;;;18.07;8.90;;;15.20;99.90;;;;;;5057884;28;20201;-51
2022/10/17 00:37:27;;;;;;;24.80;8.77;;;15.20;99.90;;;;;;5057905;28;20623;-52
2022/10/17 00:39:54;;;;;;;12.70;8.30;;;15.20;99.90;;;;;;5057564;28;20229;-54
2022/10/17 00:42:21;;;;;;;15.83;8.20;;;15.20;99.90;;;;;;5057813;28;20255;-54
2022/10/17 00:45:10;;;;;;;12.70;8.23;;;15.20;99.90;;;;;;5057786;28;20672;-57
2022/10/17 00:47:37;;;;;;;17.50;8.83;;;15.20;99.90;;;;;;5057752;28;20232;-56
2022/10/17 00:50:05;;;;;;;13.90;9.20;;;15.20;99.90;;;;;;5057730;28;20226;-56
2022/10/17 00:52:33;;;;;;;13.80;8.83;;;15.20;99.90;;;;;;5055920;28;20633;-53
2022/10/17 00:55:03;;;;;;;12.97;8.13;;;15.20;99.90;;;;;;5054220;28;20216;-55
2022/10/17 00:57:31;;;;;;;11.80;8.30;;;15.20;99.90;;;;;;5054291;28;20224;-58
2022/10/17 01:00:00;;;;;;;12.30;8.40;;;15.20;99.90;;;;;;5054261;28;20233;-57
2022/10/17 01:02:27;;;;;;;11.23;7.63;;;15.20;99.90;;;;;;5054479;28;20205;-58
2022/10/17 01:04:58;;;;;;;13.47;7.57;;;15.20;99.90;;;;;;5054537;28;20622;-56
2022/10/17 01:07:25;;;;;;;14.30;8.60;;;15.20;99.90;;;;;;5054327;28;20213;-58
2022/10/17 01:09:53;;;;;;;12.00;7.70;;;15.20;99.90;;;;;;5054255;28;20218;-57
2022/10/17 01:12:22;;;;;;;12.57;8.37;;;15.30;99.90;;;;;;5054302;28;20205;-58
2022/10/17 01:15:02;;;;;;;13.77;8.30;;;15.30;99.90;;;;;;5054121;28;20695;-57
2022/10/17 01:17:37;;;;;;;12.30;7.87;;;15.30;99.90;;;;;;5054216;28;20205;-58
2022/10/17 01:20:43;;;;;;;12.10;7.87;;;15.30;99.90;;;;;;5054127;28;20225;-57
2022/10/17 01:23:26;;;;;;;13.80;8.93;;;15.40;99.90;;;;;;5054042;28;20205;-55
2022/10/17 01:26:04;;;;;;;9.70;7.93;;;15.40;99.90;;;;;;5053836;28;20263;-58
2022/10/17 01:28:52;;;;;;;13.10;7.67;;;15.40;99.90;;;;;;5054084;28;20255;-56
2022/10/17 01:31:25;;;;;;;14.30;7.83;;;15.40;99.90;;;;;;5053821;28;20704;-59
2022/10/17 01:33:59;;;;;;;12.47;7.57;;;15.40;99.90;;;;;;5053960;28;20237;-58
2022/10/17 01:36:37;;;;;;;10.70;7.53;;;15.40;99.90;;;;;;5053994;28;20292;-50
2022/10/17 01:39:14;;;;;;;10.37;7.80;;;15.50;99.90;;;;;;5053536;28;20232;-53
2022/10/17 01:41:44;;;;;;;14.57;7.30;;;15.50;99.90;;;;;;5053617;28;20209;-53
2022/10/17 01:44:17;;;;;;;14.20;7.90;;;15.50;99.90;;;;;;5053982;28;20259;-55
2022/10/17 01:46:49;;;;;;;9.40;7.00;;;15.50;99.90;;;;;;5053675;28;20267;-53
2022/10/17 01:49:21;;;;;;;9.33;7.50;;;15.50;99.90;;;;;;5053829;28;20225;-57
2022/10/17 01:51:51;;;;;;;10.70;6.83;;;15.50;99.90;;;;;;5053533;28;20268;-55
2022/10/17 01:54:23;;;;;;;7.77;6.57;;;15.50;99.90;;;;;;5053100;28;20266;-58
2022/10/17 01:56:54;;;;;;;9.60;6.50;;;15.50;99.90;;;;;;5053241;28;20368;-57
2022/10/17 01:59:24;;;;;;;10.50;6.10;;;15.50;99.90;;;;;;5053122;28;20232;-58
2022/10/17 02:01:55;;;;;;;8.20;6.13;;;15.50;99.90;;;;;;5053731;28;20586;-56
2022/10/17 02:04:22;;;;;;;8.87;6.17;;;15.50;99.90;;;;;;5053178;28;20213;-57
2022/10/17 02:06:49;;;;;;;10.97;6.67;;;15.50;99.90;;;;;;5053007;28;20210;-56
2022/10/17 02:09:21;;;;;;;7.90;6.20;;;15.60;99.90;;;;;;5053162;28;20244;-55
2022/10/17 02:12:02;;;;;;;8.23;6.07;;;15.60;99.90;;;;;;5053238;28;20209;-55
2022/10/17 02:14:38;;;;;;;9.13;5.93;;;15.70;99.90;;;;;;5053237;28;20629;-58
2022/10/17 02:17:13;;;;;;;9.83;6.07;;;15.70;99.90;;;;;;5052696;28;20213;-58
2022/10/17 02:19:58;;;;;;;9.40;5.53;;;15.70;99.90;;;;;;5053160;28;20323;-59
2022/10/17 02:22:32;;;;;;;8.83;5.33;;;15.70;99.90;;;;;;5053191;28;20553;-59
2022/10/17 02:25:07;;;;;;;7.23;5.43;;;15.70;99.90;;;;;;5052949;28;20201;-59
2022/10/17 02:27:44;;;;;;;7.37;5.60;;;15.80;99.90;;;;;;5052546;28;20212;-58
2022/10/17 02:30:15;;;;;;;6.83;5.77;;;15.80;99.90;;;;;;5052745;28;20233;-58
2022/10/17 02:32:50;;;;;;;7.97;5.30;;;15.80;99.90;;;;;;5052814;28;20205;-58
2022/10/17 02:35:19;;;;;;;10.87;5.30;;;15.80;99.90;;;;;;5052796;28;20259;-55
2022/10/17 02:37:47;;;;;;;6.50;5.10;;;15.80;99.90;;;;;;5052426;28;20213;-58
2022/10/17 02:40:17;;;;;;;6.43;5.10;;;15.70;99.90;;;;;;5052132;28;20225;-57
2022/10/17 02:42:45;;;;;;;9.80;5.77;;;15.70;99.90;;;;;;5052480;28;20232;-59
2022/10/17 02:45:14;;;;;;;6.87;5.50;;;15.70;99.90;;;;;;5052741;28;20260;-56
2022/10/17 02:47:51;;;;;;;8.37;5.03;;;15.60;99.90;;;;;;5052469;28;20283;-58
2022/10/17 02:50:22;;;;;;;9.03;5.13;;;15.60;99.90;;;;;;5052418;28;20229;-59
2022/10/17 02:52:55;;;;;;;9.43;5.37;;;15.60;99.90;;;;;;5052524;28;20213;-56
2022/10/17 02:55:27;;;;;;;8.03;5.70;;;15.60;99.90;;;;;;5052443;28;20588;-58
2022/10/17 02:57:56;;;;;;;8.83;5.70;;;15.60;99.90;;;;;;5052049;28;20263;-57
2022/10/17 03:00:26;;;;;;;8.30;5.53;;;15.50;99.90;;;;;;5052174;28;20645;-58
2022/10/17 03:02:54;;;;;;;7.30;5.53;;;15.50;99.90;;;;;;5052149;28;20251;-58
2022/10/17 03:05:24;;;;;;;9.60;6.13;;;15.50;99.90;;;;;;5051992;28;20251;-58
2022/10/17 03:07:52;;;;;;;8.20;5.87;;;15.60;99.90;;;;;;5051850;28;20206;-54
2022/10/17 03:10:19;;;;;;;7.40;5.37;;;15.60;99.90;;;;;;5052140;28;20232;-58
2022/10/17 03:12:46;;;;;;;7.27;5.43;;;15.60;99.90;;;;;;5052034;28;20220;-58
2022/10/17 03:15:13;;;;;;;11.40;5.90;;;15.60;99.90;;;;;;5051786;28;20733;-57
2022/10/17 03:17:40;;;;;;;12.13;5.40;;;15.60;99.90;;;;;;5051349;28;20209;-57
2022/10/17 03:20:09;;;;;;;7.30;5.00;;;15.70;99.90;;;;;;5051480;28;20260;-58
2022/10/17 03:22:35;;;;;;;10.70;4.93;;;15.70;99.90;;;;;;5052040;28;20202;-58
2022/10/17 03:25:02;;;;;;;9.00;5.30;;;15.70;99.90;;;;;;5051968;28;20209;-55
2022/10/17 03:27:29;;;;;;;6.07;4.90;;;15.70;99.90;;;;;;5051613;28;20205;-58
2022/10/17 03:29:55;;;;;;;5.50;4.90;;;15.70;99.90;;;;;;5051648;28;20311;-59
2022/10/17 03:32:22;;;;;;;6.33;4.93;;;15.60;99.90;;;;;;5052252;28;20282;-58
2022/10/17 03:34:48;;;;;;;8.33;5.57;;;15.70;99.90;;;;;;5052031;28;20573;-59
2022/10/17 03:37:16;;;;;;;7.53;5.50;;;15.70;99.90;;;;;;5051620;28;20251;-58
2022/10/17 03:39:43;;;;;;;8.17;5.00;;;15.70;99.90;;;;;;5051796;28;20234;-58
2022/10/17 03:42:10;;;;;;;8.70;5.13;;;15.70;99.90;;;;;;5051932;28;20206;-59
2022/10/17 03:44:36;;;;;;;8.47;4.97;;;15.80;99.90;;;;;;5051882;28;20206;-58
2022/10/17 03:47:03;;;;;;;7.40;4.97;;;15.80;99.90;;;;;;5051648;28;20266;-59
2022/10/17 03:49:30;;;;;;;7.47;4.77;;;15.80;99.90;;;;;;5051776;28;20276;-58
2022/10/17 03:51:56;;;;;;;9.90;4.77;;;15.90;99.90;;;;;;5051688;28;20243;-58
2022/10/17 03:54:24;;;;;;;6.87;4.87;;;16.00;99.90;;;;;;5051623;28;20625;-58
2022/10/17 03:56:51;;;;;;;9.67;4.70;;;16.00;99.90;;;;;;5051426;28;20214;-59
2022/10/17 03:59:18;;;;;;;7.20;4.50;;;16.00;99.90;;;;;;5051444;28;20272;-58
2022/10/17 04:01:45;;;;;;;6.43;4.53;;;16.00;99.90;;;;;;5051302;28;20849;-59
2022/10/17 04:04:12;;;;;;;5.73;4.70;;;16.00;99.90;;;;;;5051513;28;20217;-60
2022/10/17 04:06:38;;;;;;;10.27;4.40;;;15.90;99.90;;;;;;5051363;28;20275;-59
2022/10/17 04:09:06;;;;;;;8.27;4.80;;;15.90;99.90;;;;;;5051428;28;20271;-59
2022/10/17 04:11:34;;;;;;;7.53;4.60;;;15.90;99.90;;;;;;5051197;28;20251;-59
2022/10/17 04:14:01;;;;;;;9.17;4.60;;;15.90;99.90;;;;;;5051535;28;20206;-59
2022/10/17 04:16:28;;;;;;;9.00;5.40;;;15.90;99.90;;;;;;5051341;28;20259;-59
2022/10/17 04:18:55;;;;;;;7.57;4.50;;;15.90;99.90;;;;;;5049707;28;20233;-59
2022/10/17 04:21:23;;;;;;;7.63;4.53;;;15.90;99.90;;;;;;5051026;28;20275;-59
2022/10/17 04:23:53;;;;;;;5.73;4.87;;;16.00;99.90;;;;;;5050824;28;20232;-59
2022/10/17 04:26:20;;;;;;;9.73;4.80;;;15.90;99.90;;;;;;5050854;28;20710;-59
2022/10/17 04:28:48;;;;;;;7.70;5.43;;;15.90;99.90;;;;;;5052465;28;20210;-59
2022/10/17 04:31:15;;;;;;;6.97;4.70;;;15.90;99.90;;;;;;5054851;28;20255;-59
2022/10/17 04:33:43;;;;;;;7.37;4.40;;;15.90;99.90;;;;;;5036734;28;20213;-59
2022/10/17 04:36:13;;;;;;;5.33;4.37;;;15.90;99.90;;;;;;5054513;28;20205;-59
2022/10/17 04:38:40;;;;;;;6.70;4.17;;;15.90;99.90;;;;;;5054353;28;20255;-59
2022/10/17 04:41:10;;;;;;;5.40;4.47;;;15.90;99.90;;;;;;5054639;28;20233;-63
2022/10/17 04:43:39;;;;;;;9.90;4.40;;;16.00;99.90;;;;;;5054777;28;20254;-62
2022/10/17 04:46:09;;;;;;;6.67;4.10;;;16.10;99.90;;;;;;5054590;28;20328;-62
2022/10/17 04:48:36;;;;;;;7.83;4.73;;;16.10;99.90;;;;;;5054502;28;20220;-62
2022/10/17 04:51:06;;;;;;;7.57;4.70;;;16.20;99.90;;;;;;5053941;28;20251;-62
2022/10/17 04:53:34;;;;;;;8.90;4.33;;;16.20;99.90;;;;;;5054351;28;20251;-63
2022/10/17 04:56:02;;;;;;;10.33;4.80;;;16.20;99.90;;;;;;5053948;28;20209;-62
2022/10/17 04:58:29;;;;;;;6.40;4.10;;;16.20;99.90;;;;;;5054369;28;20688;-62
2022/10/17 05:00:56;;;;;;;6.33;4.17;;;16.20;99.90;;;;;;5053870;28;20229;-62
2022/10/17 05:03:24;;;;;;;9.57;4.67;;;16.20;99.90;;;;;;5054465;28;20201;-59
2022/10/17 05:05:51;;;;;;;5.60;4.27;;;16.10;99.90;;;;;;5053890;28;20606;-59
2022/10/17 05:08:17;;;;;;;8.67;4.60;;;16.10;99.90;;;;;;5054326;28;20682;-59
2022/10/17 05:10:45;;;;;;;8.20;4.70;;;16.00;99.90;;;;;;5053600;28;20712;-59
2022/10/17 05:13:13;;;;;;;5.03;3.57;;;16.00;99.90;;;;;;5054241;28;20205;-59
2022/10/17 05:15:40;;;;;;;8.80;5.07;;;16.00;99.90;;;;;;5053885;28;20719;-59
2022/10/17 05:18:07;;;;;;;7.90;4.23;;;15.90;99.90;;;;;;5053663;28;20339;-59
2022/10/17 05:20:35;;;;;;;6.30;4.30;;;15.90;99.90;;;;;;5052354;28;20280;-58
2022/10/17 05:23:02;;;;;;;7.30;4.40;;;15.90;99.90;;;;;;5053475;28;20206;-58
2022/10/17 05:25:29;;;;;;;6.97;4.30;;;15.80;99.90;;;;;;5053719;28;20205;-59
2022/10/17 05:27:55;;;;;;;10.00;4.37;;;15.90;99.90;;;;;;5053463;28;20233;-59
2022/10/17 05:30:22;;;;;;;6.23;3.90;;;15.90;99.90;;;;;;5053484;28;20283;-60
2022/10/17 05:32:52;;;;;;;10.87;4.17;;;15.90;99.90;;;;;;5053048;28;20209;-60
2022/10/17 05:35:18;;;;;;;6.37;4.57;;;15.90;99.90;;;;;;5053540;28;20218;-59
2022/10/17 05:37:46;;;;;;;7.13;4.20;;;15.90;99.90;;;;;;5053164;28;20285;-59
2022/10/17 05:40:13;;;;;;;7.73;4.53;;;15.80;99.90;;;;;;5052821;28;20228;-60
2022/10/17 05:42:40;;;;;;;7.93;4.40;;;15.90;99.90;;;;;;5053104;28;20591;-59
2022/10/17 05:45:07;;;;;;;8.00;4.53;;;15.90;99.90;;;;;;5053441;28;20692;-59
2022/10/17 05:47:34;;;;;;;8.90;4.47;;;15.90;99.90;;;;;;5053156;28;20210;-61
2022/10/17 05:50:01;;;;;;;6.80;4.60;;;15.90;99.90;;;;;;5045066;28;20243;-57
2022/10/17 05:52:27;;;;;;;8.97;4.17;;;15.90;99.90;;;;;;5046551;28;20206;-59
2022/10/17 05:54:55;;;;;;;7.57;4.00;;;15.90;99.90;;;;;;5052689;28;20209;-59
2022/10/17 05:57:24;;;;;;;9.27;4.20;;;15.90;99.90;;;;;;5053100;28;20263;-57
2022/10/17 05:59:51;;;;;;;8.87;4.47;;;15.90;99.90;;;;;;5052571;28;20303;-58
2022/10/17 06:02:18;;;;;;;5.87;4.37;;;16.00;99.90;;;;;;5042863;28;20283;-54
2022/10/17 06:04:47;;;;;;;7.37;3.97;;;16.00;99.90;;;;;;5051521;28;20275;-56
2022/10/17 06:07:14;;;;;;;7.27;4.37;;;16.00;99.90;;;;;;5048006;28;20259;-57
2022/10/17 06:09:40;;;;;;;10.33;4.00;;;16.00;99.90;;;;;;5052242;28;20720;-59
2022/10/17 06:12:09;;;;;;;8.43;4.30;;;15.90;99.90;;;;;;5052021;28;20205;-57
2022/10/17 06:14:35;;;;;;;8.23;4.27;;;15.90;99.90;;;;;;5052370;28;20206;-63
2022/10/17 06:17:02;;;;;;;10.23;4.60;;;15.90;99.90;;;;;;5051798;28;20270;-61
2022/10/17 06:19:29;;;;;;;8.37;4.20;;;15.90;99.90;;;;;;5052597;28;20229;-60
2022/10/17 06:21:56;;;;;;;7.57;4.63;;;15.90;99.90;;;;;;5051362;28;20626;-60
2022/10/17 06:24:22;;;;;;;6.03;4.30;;;16.00;99.90;;;;;;5051898;28;20801;-59
2022/10/17 06:26:50;;;;;;;7.90;4.60;;;16.00;99.90;;;;;;5051951;28;20232;-58
2022/10/17 06:29:17;;;;;;;7.27;5.33;;;16.00;99.90;;;;;;5051553;28;20272;-57
2022/10/17 06:31:44;;;;;;;7.23;4.17;;;16.10;99.90;;;;;;5052150;28;20201;-57
2022/10/17 06:34:11;;;;;;;8.53;5.10;;;16.10;99.90;;;;;;5051343;28;20201;-60
2022/10/17 06:36:37;;;;;;;5.90;4.33;;;16.20;99.90;;;;;;5052128;28;20255;-60
2022/10/17 06:39:04;;;;;;;7.83;4.43;;;16.30;99.90;;;;;;5051369;28;20340;-60
2022/10/17 06:41:31;;;;;;;6.27;4.03;;;16.30;99.90;;;;;;5051989;28;20221;-59
2022/10/17 06:43:58;;;;;;;7.77;4.63;;;16.30;99.90;;;;;;5051287;28;20267;-59
2022/10/17 06:46:28;;;;;;;4.83;3.70;;;16.40;99.90;;;;;;5050649;28;20251;-59
2022/10/17 06:48:55;;;;;;;7.33;4.43;;;16.40;99.90;;;;;;5052269;28;20225;-60
2022/10/17 06:51:21;;;;;;;8.50;4.13;;;16.40;99.90;;;;;;5050941;28;20201;-60
2022/10/17 06:53:48;;;;;;;5.23;3.60;;;16.50;99.90;;;;;;5050387;28;20252;-60
2022/10/17 06:56:15;;;;;;;7.17;4.40;;;16.50;99.90;;;;;;5051147;28;20209;-60
2022/10/17 06:58:41;;;;;;;7.83;3.90;;;16.50;99.90;;;;;;5051933;28;20209;-58
2022/10/17 07:01:10;;;;;;;7.20;4.47;;;16.60;99.90;;;;;;5051611;28;20229;-63
2022/10/17 07:03:39;;;;;;;7.93;3.53;;;16.70;99.90;;;;;;5051024;28;20655;-62
2022/10/17 07:06:06;;;;;;;6.77;4.20;;;16.70;99.90;;;;;;5051491;28;20585;-64
2022/10/17 07:08:33;;;;;;;5.53;3.80;;;16.70;99.90;;;;;;5050959;28;20237;-66
2022/10/17 07:11:09;;;;;;;7.83;3.57;;;16.70;99.90;;;;;;5049876;28;20206;-69
2022/10/17 07:13:35;;;;;;;6.07;3.87;;;16.70;99.90;;;;;;5050969;28;20209;-67
2022/10/17 07:16:02;;;;;;;9.40;3.80;;;16.70;99.90;;;;;;5051473;28;20209;-68
2022/10/17 07:18:29;;;;;;;9.80;3.70;;;16.70;99.90;;;;;;5051009;28;20700;-65
2022/10/17 07:20:57;;;;;;;6.80;3.70;;;16.80;99.90;;;;;;5051406;28;20604;-64
2022/10/17 07:23:24;;;;;;;5.40;3.70;;;16.80;99.90;;;;;;5051244;28;20620;-65
2022/10/17 07:25:51;;;;;;;4.93;3.60;;;16.80;99.90;;;;;;5050927;28;20209;-65
2022/10/17 07:28:18;;;;;;;5.50;3.70;;;16.90;99.90;;;;;;5051485;28;20592;-64
2022/10/17 07:30:45;;;;;;;5.10;3.90;;;16.90;99.90;;;;;;5050332;28;20237;-66
2022/10/17 07:33:12;;;;;;;8.90;4.60;;;16.90;99.90;;;;;;5050868;28;20227;-65
2022/10/17 07:35:40;;;;;;;4.83;3.53;;;17.00;99.90;;;;;;5050773;28;20233;-66
2022/10/17 07:38:08;;;;;;;5.57;3.40;;;17.10;99.90;;;;;;5049994;28;20237;-60
2022/10/17 07:40:35;;;;;;;4.97;3.40;;;17.20;99.90;;;;;;5050774;28;20363;-62
2022/10/17 07:43:02;;;;;;;6.03;3.83;;;17.20;99.90;;;;;;5050544;28;20222;-60
2022/10/17 07:45:29;;;;;;;8.17;3.70;;;17.10;99.90;;;;;;5051191;28;20210;-62
2022/10/17 07:47:56;;;;;;;4.60;3.33;;;17.10;99.90;;;;;;5050465;28;20580;-60
2022/10/17 07:50:23;;;;;;;6.03;3.63;;;17.20;99.90;;;;;;5051278;28;20252;-60
2022/10/17 07:52:50;;;;;;;6.80;3.40;;;17.20;99.90;;;;;;5050403;28;20205;-60
2022/10/17 07:55:18;;;;;;;10.13;3.70;;;17.20;99.90;;;;;;5044834;28;20202;-61
2022/10/17 07:57:45;;;;;;;8.57;5.17;;;17.30;99.90;;;;;;5047118;28;20202;-59
2022/10/17 08:00:12;;;;;;;9.00;3.77;;;17.30;99.90;;;;;;5050960;28;20249;-60
2022/10/17 08:02:39;;;;;;;5.87;4.13;;;17.30;99.90;;;;;;5052644;28;20213;-60
2022/10/17 08:05:06;;;;;;;8.47;4.00;;;17.40;99.90;;;;;;5054195;28;20662;-62
2022/10/17 08:07:33;;;;;;;4.73;3.47;;;17.30;99.90;;;;;;5055012;28;20209;-62
2022/10/17 08:09:59;;;;;;;6.37;3.67;;;17.40;99.90;;;;;;5054546;28;20645;-62
2022/10/17 08:12:30;;;;;;;7.27;3.43;;;17.40;99.90;;;;;;5055104;28;20201;-62
2022/10/17 08:14:57;;;;;;;11.50;3.90;;;17.40;99.90;;;;;;5054481;28;20206;-61
2022/10/17 08:17:24;;;;;;;6.80;3.17;;;17.50;99.90;;;;;;5054372;28;20209;-61
2022/10/17 08:19:51;;;;;;;5.37;3.87;;;17.50;99.90;;;;;;5053941;28;20234;-60
2022/10/17 08:22:17;;;;;;;9.17;3.30;;;17.60;99.90;;;;;;5054852;28;20319;-61
2022/10/17 08:24:45;;;;;;;7.47;3.10;;;17.60;99.90;;;;;;5054360;28;20214;-61
2022/10/17 08:27:12;;;;;;;5.93;3.10;;;17.70;99.90;;;;;;5053934;28;20217;-61
2022/10/17 08:29:40;;;;;;;10.23;3.50;;;17.80;99.90;;;;;;5053267;28;20702;-65
2022/10/17 08:32:08;;;;;;;6.57;3.30;;;17.80;99.90;;;;;;5053525;28;20920;-67
2022/10/17 08:34:35;;;;;;;4.10;3.10;;;17.90;99.90;;;;;;5054039;28;20301;-65
2022/10/17 08:37:02;;;;;;;8.53;3.17;;;18.00;99.90;;;;;;5053755;28;20255;-65
2022/10/17 08:39:28;;;;;;;7.17;3.50;;;18.10;99.90;;;;;;5054188;28;20720;-66
2022/10/17 08:42:08;;;;;;;6.53;3.23;;;18.20;99.90;;;;;;5054034;28;20697;-65
2022/10/17 08:44:49;;;;;;;4.13;3.20;;;18.30;99.90;;;;;;5054076;28;20287;-59
2022/10/17 08:47:24;;;;;;;8.00;3.10;;;18.40;99.90;;;;;;5053779;28;20216;-58
2022/10/17 08:49:54;;;;;;;8.67;4.63;;;18.40;99.90;;;;;;5054209;28;20671;-61
2022/10/17 08:52:36;;;;;;;6.93;3.10;;;18.50;99.90;;;;;;5054669;28;20581;-62
2022/10/17 08:55:04;;;;;;;5.27;3.00;;;18.70;99.90;;;;;;5053353;28;20206;-63
2022/10/17 08:57:31;;;;;;;4.73;2.83;;;18.80;99.90;;;;;;5054218;28;20217;-62
2022/10/17 08:59:59;;;;;;;4.83;3.33;;;19.00;99.90;;;;;;5051803;28;20218;-62
2022/10/17 09:02:39;;;;;;;5.30;2.90;;;19.00;99.90;;;;;;5053676;28;20226;-57
2022/10/17 09:05:26;;;;;;;3.50;3.07;;;19.10;99.90;;;;;;5052772;28;20206;-58
2022/10/17 09:08:03;;;;;;;6.57;3.37;;;19.00;99.90;;;;;;5053991;28;20577;-58
2022/10/17 09:10:37;;;;;;;7.83;3.13;;;19.00;99.90;;;;;;5053610;28;20229;-60
2022/10/17 09:13:17;;;;;;;5.70;3.13;;;19.00;99.90;;;;;;5053332;28;20205;-62
2022/10/17 09:16:00;;;;;;;5.83;3.30;;;19.10;99.90;;;;;;5052748;28;20239;-63
2022/10/17 09:18:31;;;;;;;4.93;2.80;;;19.30;99.90;;;;;;5053944;28;20671;-62
2022/10/17 09:21:03;;;;;;;6.30;3.10;;;19.40;99.90;;;;;;5053575;28;20220;-63
2022/10/17 09:23:33;;;;;;;6.57;2.90;;;19.40;99.90;;;;;;5053710;28;20237;-61
2022/10/17 09:26:01;;;;;;;4.30;2.50;;;19.50;99.90;;;;;;5053112;28;20361;-59
2022/10/17 09:28:32;;;;;;;9.07;2.67;;;19.50;99.90;;;;;;5053217;28;20703;-62
2022/10/17 09:31:03;;;;;;;5.80;2.97;;;19.50;99.90;;;;;;5053583;28;20259;-62
2022/10/17 09:33:36;;;;;;;7.43;3.13;;;19.40;99.90;;;;;;5052828;28;20209;-60
2022/10/17 09:36:08;;;;;;;5.43;3.00;;;19.40;99.90;;;;;;5052677;28;20214;-61
2022/10/17 09:38:40;;;;;;;9.87;3.17;;;19.40;99.90;;;;;;5052912;28;20217;-59
2022/10/17 09:41:15;;;;;;;6.50;3.10;;;19.40;99.90;;;;;;5053179;28;20210;-60
2022/10/17 09:43:42;;;;;;;3.97;2.83;;;19.40;99.90;;;;;;5052382;28;20225;-60
2022/10/17 09:46:16;;;;;;;3.83;2.70;;;19.40;99.90;;;;;;5052843;28;20217;-60
2022/10/17 09:48:46;;;;;;;6.60;3.20;;;19.50;99.90;;;;;;5052398;28;20206;-60
2022/10/17 09:51:14;;;;;;;4.77;2.60;;;19.60;99.90;;;;;;5053055;28;20206;-63
2022/10/17 09:53:44;;;;;;;6.77;3.10;;;19.70;99.90;;;;;;5052340;28;20208;-64
2022/10/17 09:56:14;;;;;;;6.43;3.60;;;19.70;99.90;;;;;;5052238;28;20819;-65
2022/10/17 09:58:42;;;;;;;3.90;3.00;;;19.70;99.90;;;;;;5052526;28;20649;-60
2022/10/17 10:01:19;;;;;;;4.60;3.00;;;19.70;99.90;;;;;;5051276;28;20210;-63
2022/10/17 10:03:46;;;;;;;5.63;3.40;;;19.70;99.90;;;;;;5052229;28;20356;-62
2022/10/17 10:06:16;;;;;;;5.70;3.00;;;19.70;99.90;;;;;;5052176;28;20259;-63
2022/10/17 10:08:53;;;;;;;6.97;2.93;;;19.70;99.90;;;;;;5052626;28;20209;-62
2022/10/17 10:11:26;;;;;;;7.07;3.10;;;19.60;99.90;;;;;;5052227;28;20205;-62
2022/10/17 10:13:53;;;;;;;9.93;2.83;;;19.60;99.90;;;;;;5052088;28;20224;-60
2022/10/17 10:16:31;;;;;;;5.60;3.10;;;19.60;99.90;;;;;;5051546;28;20209;-61
2022/10/17 10:18:58;;;;;;;7.17;3.00;;;19.70;99.90;;;;;;5052590;28;20237;-60
2022/10/17 10:21:27;;;;;;;4.03;3.07;;;19.60;99.90;;;;;;5052126;28;20210;-65
2022/10/17 10:24:06;;;;;;;7.00;3.00;;;19.60;99.90;;;;;;5051583;28;20716;-66
2022/10/17 10:26:38;;;;;;;5.27;3.23;;;19.50;99.90;;;;;;5047123;28;20209;-66
2022/10/17 10:29:19;;;;;;;6.97;3.03;;;19.50;99.90;;;;;;5051979;28;20878;-66
2022/10/17 10:31:48;;;;;;;7.03;3.20;;;19.50;99.90;;;;;;5052601;28;20246;-66
2022/10/17 10:34:19;;;;;;;9.57;3.17;;;19.60;99.90;;;;;;5050959;28;20676;-65
2022/10/17 10:36:57;;;;;;;5.33;2.63;;;19.60;99.90;;;;;;5051743;28;20205;-65
2022/10/17 10:39:41;;;;;;;5.13;3.10;;;19.60;99.90;;;;;;5051329;28;20232;-67
2022/10/17 10:42:19;;;;;;;7.53;3.70;;;19.50;99.90;;;;;;5052254;28;20240;-66
2022/10/17 10:44:46;;;;;;;3.87;3.33;;;19.50;99.90;;;;;;5049651;28;20213;-65
2022/10/17 10:47:26;;;;;;;7.63;3.43;;;19.50;99.90;;;;;;5051790;28;20214;-67
2022/10/17 10:50:08;;;;;;;6.17;2.90;;;19.50;99.90;;;;;;5051235;28;20282;-66
2022/10/17 10:52:43;;;;;;;6.27;3.10;;;19.60;99.90;;;;;;5051972;28;20259;-66
2022/10/17 10:55:22;;;;;;;4.37;3.13;;;19.60;99.90;;;;;;5051154;28;20271;-66
2022/10/17 10:57:52;;;;;;;4.97;2.80;;;19.70;99.90;;;;;;5051308;28;20631;-66
2022/10/17 11:00:22;;;;;;;7.27;3.30;;;19.70;99.90;;;;;;5051552;28;20294;-67
2022/10/17 11:02:58;;;;;;;3.60;2.77;;;19.70;99.90;;;;;;5052936;28;20647;-68
2022/10/17 11:05:32;;;;;;;9.50;3.80;;;19.70;99.90;;;;;;5052285;28;20669;-64
2022/10/17 11:08:05;;;;;;;5.33;3.13;;;19.80;99.90;;;;;;5051758;28;20205;-64
2022/10/17 11:10:37;;;;;;;4.43;3.00;;;19.80;99.90;;;;;;5050639;28;20602;-64
2022/10/17 11:13:10;;;;;;;9.27;3.13;;;19.70;99.90;;;;;;5049017;28;20625;-65
2022/10/17 11:15:43;;;;;;;8.33;3.03;;;19.60;99.90;;;;;;5051677;28;20206;-64
2022/10/17 11:18:21;;;;;;;3.30;3.00;;;19.60;99.90;;;;;;5050782;28;20646;-64
2022/10/17 11:20:54;;;;;;;6.67;3.07;;;19.60;99.90;;;;;;5051356;28;20225;-63
2022/10/17 11:23:27;;;;;;;7.27;3.17;;;19.60;99.90;;;;;;5050629;28;20221;-62
2022/10/17 11:25:56;;;;;;;5.47;3.60;;;19.60;99.90;;;;;;5051062;28;20220;-60
2022/10/17 11:28:24;;;;;;;5.47;2.97;;;19.60;99.90;;;;;;5051237;28;20202;-62
2022/10/17 11:30:55;;;;;;;4.97;2.80;;;19.70;99.90;;;;;;5050802;28;20248;-61
2022/10/17 11:33:29;;;;;;;6.73;3.30;;;19.70;99.90;;;;;;5050831;28;20259;-63
2022/10/17 11:36:02;;;;;;;7.23;2.80;;;19.70;99.90;;;;;;5050434;28;20695;-64
2022/10/17 11:38:38;;;;;;;4.60;3.20;;;19.70;99.90;;;;;;5050600;28;20236;-62
2022/10/17 11:41:06;;;;;;;5.57;2.90;;;19.80;99.90;;;;;;5050486;28;20823;-62
2022/10/17 11:43:40;;;;;;;6.70;3.10;;;19.70;99.90;;;;;;5051473;28;20236;-68
2022/10/17 11:46:15;;;;;;;7.17;3.43;;;19.80;99.90;;;;;;5050606;28;20255;-65
2022/10/17 11:48:50;;;;;;;6.20;3.30;;;19.90;99.90;;;;;;5051147;28;20201;-64
2022/10/17 11:51:17;;;;;;;6.13;3.20;;;19.90;99.90;;;;;;5051317;28;20605;-64
2022/10/17 11:53:52;;;;;;;4.90;3.23;;;19.90;99.90;;;;;;5050891;28;20747;-65
2022/10/17 11:56:39;;;;;;;5.00;3.07;;;19.90;99.90;;;;;;5050359;28;20189;-65
2022/10/17 11:59:27;;;;;;;7.93;3.20;;;19.80;99.90;;;;;;5051955;28;20229;-61
2022/10/17 12:01:58;;;;;;;5.57;3.23;;;19.80;99.90;;;;;;5051680;28;20212;-61
2022/10/17 12:04:40;;;;;;;12.87;3.27;;;19.90;99.90;;;;;;5050677;28;20628;-61
2022/10/17 12:07:13;;;;;;;5.87;3.47;;;19.90;99.90;;;;;;5050947;28;20629;-62
2022/10/17 12:09:46;;;;;;;5.80;3.20;;;19.90;99.90;;;;;;5050814;28;20229;-61
2022/10/17 12:12:25;;;;;;;6.63;3.40;;;19.80;99.90;;;;;;5051372;28;20267;-61
2022/10/17 12:14:52;;;;;;;10.27;3.43;;;19.90;99.90;;;;;;5049894;28;20221;-62
2022/10/17 12:17:35;;;;;;;10.47;3.33;;;19.80;99.90;;;;;;5050515;28;20247;-62
2022/10/17 12:20:31;;;;;;;7.27;3.13;;;19.80;99.90;;;;;;5050099;28;20803;-63
2022/10/17 12:23:18;;;;;;;6.80;3.00;;;19.70;99.90;;;;;;5037295;28;20643;-63
2022/10/17 12:25:50;;;;;;;6.17;3.40;;;19.70;99.90;;;;;;5049705;28;20212;-62
2022/10/17 12:28:24;;;;;;;7.93;3.60;;;19.70;99.90;;;;;;5050516;28;20297;-62
2022/10/17 12:30:54;;;;;;;6.57;3.20;;;19.70;99.90;;;;;;5050064;28;20243;-61
2022/10/17 12:33:25;;;;;;;8.00;3.27;;;19.70;99.90;;;;;;5050547;28;20206;-62
2022/10/17 12:36:46;;;;;;;4.73;3.03;;;19.60;99.90;;;;;;5049601;28;20288;-64
2022/10/17 12:39:50;;;;;;;7.43;3.17;;;19.60;99.90;;;;;;5051315;28;20261;-62
2022/10/17 12:42:33;;;;;;;4.40;3.20;;;19.60;99.90;;;;;;5037519;28;20216;-60
2022/10/17 12:45:00;;;;;;;6.17;3.27;;;19.50;99.90;;;;;;5047523;28;20292;-62
2022/10/17 12:47:29;;;;;;;5.60;3.50;;;19.50;99.90;;;;;;5050177;28;20296;-61
2022/10/17 12:49:55;;;;;;;5.27;3.17;;;19.50;99.90;;;;;;5048331;28;20718;-61
2022/10/17 12:52:28;;;;;;;11.00;3.00;;;19.60;99.90;;;;;;5053773;28;20209;-61
2022/10/17 12:55:11;;;;;;;6.70;3.43;;;19.50;99.90;;;;;;5053428;28;20251;-66
2022/10/17 12:57:49;;;;;;;6.00;3.70;;;19.50;99.90;;;;;;5053628;28;20576;-63
2022/10/17 13:00:25;;;;;;;3.93;3.53;;;19.40;99.90;;;;;;5054317;28;20279;-67
2022/10/17 13:02:55;;;;;;;9.23;3.23;;;19.30;99.90;;;;;;5054095;28;20232;-66